PWSweather.com
Personal Weather Stations
Station Observations
WATERF01
WaterfordIE

WaterfordIE

Lat: 52.2412507, Lon: -7.1414691

Elevation: 65

Station Type: Davis Vantage Vue

www.waterfordweather.com

High Low Average
Temperature 61.5°F16.4°C 54.7°F12.6°C 59.2°F15.1°C
Dew Point 57.0°F13.9°C 50.3°F10.2°C 53.9°F12.2°C
Winds 17.3 mph 27.8 kmh Calm Calm 7.0 mph WSW11.3 kmh WSW
Wind Gusts 27.6 mph44.4 kmh -- 12.0 mph19.3 kmh
Humidity 88% 73% 83%
Pressure 30.13 in1020.3 mb 29.62 in1003.0 mb -
Precipitation 0.07 in1.8 mm - -
Hour Temp Dew Point Humidity Winds Wind Gusts Pressure Precip Precip Rate Daily Precip Total
12:00 AM 58.8°F14.9°C 54.6°F12.6°C 86% Calm Calm -- 30.13 in1020.3 mb - 0.00 in0.0 mm 0.00 in0.0 mm
12:10 AM 58.9°F14.9°C 54.7°F12.6°C 86% Calm Calm -- 30.13 in1020.3 mb - 0.00 in0.0 mm 0.00 in0.0 mm
12:20 AM 58.9°F14.9°C 54.7°F12.6°C 86% Calm Calm -- 30.13 in1020.3 mb - 0.00 in0.0 mm 0.00 in0.0 mm
12:30 AM 58.9°F14.9°C 54.7°F12.6°C 86% Calm Calm -- 30.12 in1020.0 mb - 0.00 in0.0 mm 0.00 in0.0 mm
12:40 AM 58.9°F14.9°C 54.7°F12.6°C 86% Calm Calm -- 30.12 in1020.0 mb - 0.00 in0.0 mm 0.00 in0.0 mm
12:50 AM 58.7°F14.8°C 54.5°F12.5°C 86% Calm Calm -- 30.12 in1020.0 mb - 0.00 in0.0 mm 0.00 in0.0 mm
01:00 AM 58.1°F14.5°C 53.3°F11.8°C 84% Calm Calm -- 30.12 in1020.0 mb - 0.00 in0.0 mm 0.00 in0.0 mm
01:10 AM 58.0°F14.4°C 52.9°F11.6°C 83% Calm Calm -- 30.12 in1020.0 mb - 0.00 in0.0 mm 0.00 in0.0 mm
01:20 AM 57.7°F14.3°C 52.2°F11.2°C 82% Calm Calm -- 30.11 in1019.6 mb - 0.00 in0.0 mm 0.00 in0.0 mm
01:30 AM 57.4°F14.1°C 51.9°F11.1°C 82% Calm Calm -- 30.11 in1019.6 mb - 0.00 in0.0 mm 0.00 in0.0 mm
01:40 AM 56.9°F13.8°C 51.1°F10.6°C 81% Calm Calm -- 30.11 in1019.6 mb - 0.00 in0.0 mm 0.00 in0.0 mm
01:50 AM 56.7°F13.7°C 50.9°F10.5°C 81% Calm Calm -- 30.12 in1020.0 mb - 0.00 in0.0 mm 0.00 in0.0 mm
02:00 AM 56.7°F13.7°C 50.9°F10.5°C 81% Calm Calm -- 30.11 in1019.6 mb - 0.00 in0.0 mm 0.00 in0.0 mm
02:10 AM 56.7°F13.7°C 51.0°F10.6°C 81% Calm Calm -- 30.11 in1019.6 mb - 0.00 in0.0 mm 0.00 in0.0 mm
02:20 AM 56.7°F13.7°C 50.9°F10.5°C 81% Calm Calm -- 30.10 in1019.3 mb - 0.00 in0.0 mm 0.00 in0.0 mm
02:30 AM 56.5°F13.6°C 50.7°F10.4°C 81% Calm Calm -- 30.10 in1019.3 mb - 0.00 in0.0 mm 0.00 in0.0 mm
02:40 AM 56.5°F13.6°C 50.7°F10.4°C 81% Calm Calm -- 30.10 in1019.3 mb - 0.00 in0.0 mm 0.00 in0.0 mm
02:50 AM 56.4°F13.6°C 50.3°F10.2°C 80% Calm Calm -- 30.10 in1019.3 mb - 0.00 in0.0 mm 0.00 in0.0 mm
03:00 AM 56.4°F13.6°C 50.6°F10.3°C 81% Calm Calm -- 30.09 in1019.0 mb - 0.00 in0.0 mm 0.00 in0.0 mm
03:10 AM 56.1°F13.4°C 51.0°F10.6°C 83% 2.3 mph SE3.7 kmh SE 2.3 mph3.7 kmh 30.09 in1019.0 mb - 0.00 in0.0 mm 0.00 in0.0 mm
03:20 AM 55.8°F13.2°C 51.4°F10.8°C 85% Calm Calm -- 30.08 in1018.6 mb - 0.00 in0.0 mm 0.00 in0.0 mm
03:30 AM 55.4°F13.0°C 51.3°F10.7°C 86% Calm Calm -- 30.08 in1018.6 mb - 0.00 in0.0 mm 0.00 in0.0 mm
03:40 AM 55.2°F12.9°C 51.1°F10.6°C 86% Calm Calm -- 30.07 in1018.3 mb - 0.00 in0.0 mm 0.00 in0.0 mm
03:50 AM 55.0°F12.8°C 50.9°F10.5°C 86% Calm Calm -- 30.07 in1018.3 mb - 0.00 in0.0 mm 0.00 in0.0 mm
04:00 AM 54.9°F12.7°C 50.8°F10.4°C 86% Calm Calm -- 30.07 in1018.3 mb - 0.00 in0.0 mm 0.00 in0.0 mm
04:10 AM 54.7°F12.6°C 50.6°F10.3°C 86% Calm Calm -- 30.07 in1018.3 mb - 0.00 in0.0 mm 0.00 in0.0 mm
04:20 AM 54.7°F12.6°C 50.6°F10.3°C 86% 1.2 mph ESE1.9 kmh ESE 2.3 mph3.7 kmh 30.07 in1018.3 mb - 0.00 in0.0 mm 0.00 in0.0 mm
04:30 AM 54.7°F12.6°C 50.6°F10.3°C 86% Calm Calm -- 30.06 in1017.9 mb - 0.00 in0.0 mm 0.00 in0.0 mm
04:40 AM 55.0°F12.8°C 50.9°F10.5°C 86% Calm Calm -- 30.06 in1017.9 mb - 0.00 in0.0 mm 0.00 in0.0 mm
04:50 AM 55.3°F12.9°C 51.2°F10.7°C 86% Calm Calm -- 30.06 in1017.9 mb - 0.00 in0.0 mm 0.00 in0.0 mm
05:00 AM 55.5°F13.1°C 51.4°F10.8°C 86% Calm Calm -- 30.06 in1017.9 mb - 0.00 in0.0 mm 0.00 in0.0 mm
05:10 AM 55.7°F13.2°C 51.5°F10.8°C 86% Calm Calm -- 30.06 in1017.9 mb - 0.00 in0.0 mm 0.00 in0.0 mm
05:20 AM 55.6°F13.1°C 51.5°F10.8°C 86% Calm Calm -- 30.07 in1018.3 mb - 0.00 in0.0 mm 0.00 in0.0 mm
05:30 AM 55.4°F13.0°C 50.6°F10.3°C 84% Calm Calm -- 30.06 in1017.9 mb - 0.00 in0.0 mm 0.00 in0.0 mm
05:40 AM 55.5°F13.1°C 50.4°F10.2°C 83% Calm Calm -- 30.06 in1017.9 mb - 0.00 in0.0 mm 0.00 in0.0 mm
05:50 AM 55.9°F13.3°C 50.5°F10.3°C 82% Calm Calm -- 30.06 in1017.9 mb - 0.00 in0.0 mm 0.00 in0.0 mm
06:00 AM 56.5°F13.6°C 51.1°F10.6°C 82% Calm Calm -- 30.06 in1017.9 mb - 0.00 in0.0 mm 0.00 in0.0 mm
06:10 AM 57.5°F14.2°C 52.4°F11.3°C 83% Calm Calm -- 30.05 in1017.6 mb - 0.00 in0.0 mm 0.00 in0.0 mm
06:20 AM 58.0°F14.4°C 52.5°F11.4°C 82% Calm Calm -- 30.05 in1017.6 mb - 0.00 in0.0 mm 0.00 in0.0 mm
06:30 AM 58.4°F14.7°C 52.9°F11.6°C 82% Calm Calm 5.8 mph9.3 kmh 30.05 in1017.6 mb - 0.00 in0.0 mm 0.00 in0.0 mm
06:40 AM 58.7°F14.8°C 52.5°F11.4°C 80% 5.8 mph W9.3 kmh W 8.1 mph13.0 kmh 30.05 in1017.6 mb - 0.00 in0.0 mm 0.00 in0.0 mm
06:50 AM 58.6°F14.8°C 52.1°F11.2°C 79% 1.2 mph W1.9 kmh W 6.9 mph11.1 kmh 30.05 in1017.6 mb - 0.00 in0.0 mm 0.00 in0.0 mm
07:00 AM 58.6°F14.8°C 51.1°F10.6°C 76% 4.6 mph W7.4 kmh W 6.9 mph11.1 kmh 30.05 in1017.6 mb - 0.00 in0.0 mm 0.00 in0.0 mm
07:10 AM 58.9°F14.9°C 50.6°F10.3°C 74% 4.6 mph WSW7.4 kmh WSW 8.1 mph13.0 kmh 30.05 in1017.6 mb - 0.00 in0.0 mm 0.00 in0.0 mm
07:20 AM 59.0°F15.0°C 50.7°F10.4°C 74% 4.6 mph WSW7.4 kmh WSW 6.9 mph11.1 kmh 30.05 in1017.6 mb - 0.00 in0.0 mm 0.00 in0.0 mm
07:30 AM 59.2°F15.1°C 50.9°F10.5°C 74% 5.8 mph W9.3 kmh W 8.1 mph13.0 kmh 30.05 in1017.6 mb - 0.00 in0.0 mm 0.00 in0.0 mm
07:40 AM 59.5°F15.3°C 50.8°F10.4°C 73% 9.2 mph W14.8 kmh W 15.0 mph24.1 kmh 30.05 in1017.6 mb - 0.00 in0.0 mm 0.00 in0.0 mm
07:50 AM 59.7°F15.4°C 51.4°F10.8°C 74% 8.1 mph W13.0 kmh W 11.5 mph18.5 kmh 30.05 in1017.6 mb - 0.00 in0.0 mm 0.00 in0.0 mm
08:00 AM 60.0°F15.6°C 51.7°F10.9°C 74% 5.8 mph WSW9.3 kmh WSW 8.1 mph13.0 kmh 30.05 in1017.6 mb - 0.00 in0.0 mm 0.00 in0.0 mm
08:10 AM 60.1°F15.6°C 51.4°F10.8°C 73% 5.8 mph W9.3 kmh W 9.2 mph14.8 kmh 30.05 in1017.6 mb - 0.00 in0.0 mm 0.00 in0.0 mm
08:20 AM 59.7°F15.4°C 51.8°F11.0°C 75% 5.8 mph W9.3 kmh W 8.1 mph13.0 kmh 30.05 in1017.6 mb - 0.00 in0.0 mm 0.00 in0.0 mm
08:30 AM 59.9°F15.5°C 51.6°F10.9°C 74% 5.8 mph NW9.3 kmh NW 8.1 mph13.0 kmh 30.04 in1017.3 mb - 0.00 in0.0 mm 0.00 in0.0 mm
08:40 AM 60.1°F15.6°C 52.1°F11.2°C 75% 3.5 mph NNW5.6 kmh NNW 8.1 mph13.0 kmh 30.04 in1017.3 mb - 0.00 in0.0 mm 0.00 in0.0 mm
08:50 AM 60.2°F15.7°C 51.8°F11.0°C 74% 9.2 mph WSW14.8 kmh WSW 11.5 mph18.5 kmh 30.04 in1017.3 mb - 0.00 in0.0 mm 0.00 in0.0 mm
09:00 AM 59.8°F15.4°C 52.2°F11.2°C 76% 5.8 mph W9.3 kmh W 11.5 mph18.5 kmh 30.04 in1017.3 mb - 0.00 in0.0 mm 0.00 in0.0 mm
09:10 AM 59.9°F15.5°C 52.3°F11.3°C 76% 3.5 mph W5.6 kmh W 5.8 mph9.3 kmh 30.03 in1016.9 mb - 0.00 in0.0 mm 0.00 in0.0 mm
09:20 AM 60.4°F15.8°C 52.4°F11.3°C 75% 4.6 mph WNW7.4 kmh WNW 8.1 mph13.0 kmh 30.03 in1016.9 mb - 0.00 in0.0 mm 0.00 in0.0 mm
09:30 AM 60.5°F15.8°C 52.5°F11.4°C 75% 5.8 mph WSW9.3 kmh WSW 12.7 mph20.4 kmh 30.03 in1016.9 mb - 0.00 in0.0 mm 0.00 in0.0 mm
09:40 AM 60.6°F15.9°C 53.0°F11.7°C 76% 4.6 mph SW7.4 kmh SW 6.9 mph11.1 kmh 30.02 in1016.6 mb - 0.00 in0.0 mm 0.00 in0.0 mm
09:50 AM 60.9°F16.1°C 53.3°F11.8°C 76% 4.6 mph WSW7.4 kmh WSW 8.1 mph13.0 kmh 30.02 in1016.6 mb - 0.00 in0.0 mm 0.00 in0.0 mm
10:00 AM 61.1°F16.2°C 53.8°F12.1°C 77% 8.1 mph ESE13.0 kmh ESE 16.1 mph25.9 kmh 30.02 in1016.6 mb - 0.00 in0.0 mm 0.00 in0.0 mm
10:10 AM 61.1°F16.2°C 53.9°F12.2°C 77% 5.8 mph SW9.3 kmh SW 11.5 mph18.5 kmh 30.02 in1016.6 mb - 0.00 in0.0 mm 0.00 in0.0 mm
10:20 AM 61.1°F16.2°C 54.2°F12.3°C 78% 6.9 mph WNW11.1 kmh WNW 9.2 mph14.8 kmh 30.02 in1016.6 mb - 0.00 in0.0 mm 0.00 in0.0 mm
10:30 AM 60.7°F15.9°C 54.1°F12.3°C 79% 5.8 mph W9.3 kmh W 11.5 mph18.5 kmh 30.01 in1016.3 mb - 0.00 in0.0 mm 0.00 in0.0 mm
10:40 AM 60.8°F16.0°C 54.2°F12.3°C 79% 6.9 mph W11.1 kmh W 11.5 mph18.5 kmh 30.01 in1016.3 mb - 0.00 in0.0 mm 0.00 in0.0 mm
10:50 AM 60.7°F15.9°C 54.5°F12.5°C 80% 3.5 mph WSW5.6 kmh WSW 9.2 mph14.8 kmh 30.01 in1016.3 mb - 0.00 in0.0 mm 0.00 in0.0 mm
11:00 AM 60.5°F15.8°C 54.6°F12.6°C 81% 6.9 mph W11.1 kmh W 13.8 mph22.2 kmh 30.00 in1015.9 mb - 0.00 in0.0 mm 0.00 in0.0 mm
11:10 AM 60.4°F15.8°C 54.9°F12.7°C 82% 8.1 mph W13.0 kmh W 13.8 mph22.2 kmh 30.00 in1015.9 mb - 0.00 in0.0 mm 0.00 in0.0 mm
11:20 AM 60.4°F15.8°C 54.9°F12.7°C 82% 5.8 mph WSW9.3 kmh WSW 8.1 mph13.0 kmh 30.00 in1015.9 mb - 0.00 in0.0 mm 0.00 in0.0 mm
11:30 AM 61.1°F16.2°C 54.9°F12.7°C 80% 10.4 mph W16.7 kmh W 16.1 mph25.9 kmh 30.00 in1015.9 mb - 0.00 in0.0 mm 0.00 in0.0 mm
11:40 AM 61.2°F16.2°C 55.0°F12.8°C 80% 6.9 mph WSW11.1 kmh WSW 13.8 mph22.2 kmh 29.99 in1015.6 mb - 0.00 in0.0 mm 0.00 in0.0 mm
11:50 AM 61.1°F16.2°C 55.2°F12.9°C 81% 6.9 mph W11.1 kmh W 12.7 mph20.4 kmh 29.99 in1015.6 mb - 0.00 in0.0 mm 0.00 in0.0 mm
12:00 PM 59.8°F15.4°C 55.2°F12.9°C 85% 8.1 mph WSW13.0 kmh WSW 13.8 mph22.2 kmh 29.99 in1015.6 mb - 0.00 in0.0 mm 0.00 in0.0 mm
12:10 PM 60.0°F15.6°C 55.8°F13.2°C 86% 6.9 mph W11.1 kmh W 12.7 mph20.4 kmh 29.98 in1015.2 mb - 0.00 in0.0 mm 0.00 in0.0 mm
12:20 PM 60.8°F16.0°C 55.6°F13.1°C 83% 10.4 mph SW16.7 kmh SW 16.1 mph25.9 kmh 29.98 in1015.2 mb - 0.00 in0.0 mm 0.00 in0.0 mm
12:30 PM 60.8°F16.0°C 55.6°F13.1°C 83% 8.1 mph WSW13.0 kmh WSW 15.0 mph24.1 kmh 29.97 in1014.9 mb - 0.00 in0.0 mm 0.00 in0.0 mm
12:40 PM 61.0°F16.1°C 55.8°F13.2°C 83% 9.2 mph WSW14.8 kmh WSW 16.1 mph25.9 kmh 29.97 in1014.9 mb - 0.00 in0.0 mm 0.00 in0.0 mm
12:50 PM 60.9°F16.1°C 55.7°F13.2°C 83% 8.1 mph WSW13.0 kmh WSW 13.8 mph22.2 kmh 29.97 in1014.9 mb - 0.00 in0.0 mm 0.00 in0.0 mm
01:00 PM 60.8°F16.0°C 55.6°F13.1°C 83% 11.5 mph W18.5 kmh W 20.7 mph33.3 kmh 29.96 in1014.6 mb - 0.00 in0.0 mm 0.00 in0.0 mm
01:10 PM 60.3°F15.7°C 55.1°F12.8°C 83% 9.2 mph WNW14.8 kmh WNW 19.6 mph31.5 kmh 29.96 in1014.6 mb - 0.00 in0.0 mm 0.00 in0.0 mm
01:20 PM 60.1°F15.6°C 55.3°F12.9°C 84% 8.1 mph W13.0 kmh W 12.7 mph20.4 kmh 29.96 in1014.6 mb - 0.00 in0.0 mm 0.00 in0.0 mm
01:30 PM 60.4°F15.8°C 54.9°F12.7°C 82% 10.4 mph W16.7 kmh W 13.8 mph22.2 kmh 29.96 in1014.6 mb - 0.00 in0.0 mm 0.00 in0.0 mm
01:40 PM 60.8°F16.0°C 55.3°F12.9°C 82% 8.1 mph W13.0 kmh W 18.4 mph29.6 kmh 29.95 in1014.2 mb - 0.00 in0.0 mm 0.00 in0.0 mm
01:50 PM 61.5°F16.4°C 55.6°F13.1°C 81% 12.7 mph WSW20.4 kmh WSW 20.7 mph33.3 kmh 29.94 in1013.9 mb - 0.00 in0.0 mm 0.00 in0.0 mm
02:00 PM 60.9°F16.1°C 55.0°F12.8°C 81% 10.4 mph NW16.7 kmh NW 18.4 mph29.6 kmh 29.93 in1013.5 mb - 0.00 in0.0 mm 0.00 in0.0 mm
02:10 PM 61.4°F16.3°C 55.5°F13.1°C 81% 9.2 mph NW14.8 kmh NW 19.6 mph31.5 kmh 29.93 in1013.5 mb - 0.00 in0.0 mm 0.00 in0.0 mm
02:20 PM 61.4°F16.3°C 55.5°F13.1°C 81% 11.5 mph WSW18.5 kmh WSW 18.4 mph29.6 kmh 29.93 in1013.5 mb - 0.00 in0.0 mm 0.00 in0.0 mm
02:30 PM 61.3°F16.3°C 55.8°F13.2°C 82% 8.1 mph WSW13.0 kmh WSW 13.8 mph22.2 kmh 29.93 in1013.5 mb - 0.00 in0.0 mm 0.00 in0.0 mm
02:40 PM 61.1°F16.2°C 55.2°F12.9°C 81% 8.1 mph W13.0 kmh W 16.1 mph25.9 kmh 29.92 in1013.2 mb - 0.00 in0.0 mm 0.00 in0.0 mm
02:50 PM 60.5°F15.8°C 55.3°F12.9°C 83% 8.1 mph WSW13.0 kmh WSW 16.1 mph25.9 kmh 29.92 in1013.2 mb - 0.00 in0.0 mm 0.00 in0.0 mm
03:00 PM 60.8°F16.0°C 55.2°F12.9°C 82% 11.5 mph W18.5 kmh W 19.6 mph31.5 kmh 29.91 in1012.9 mb - 0.00 in0.0 mm 0.00 in0.0 mm
03:10 PM 60.8°F16.0°C 55.3°F12.9°C 82% 12.7 mph SW20.4 kmh SW 21.9 mph35.2 kmh 29.91 in1012.9 mb - 0.00 in0.0 mm 0.00 in0.0 mm
03:20 PM 60.5°F15.8°C 55.3°F12.9°C 83% 10.4 mph WSW16.7 kmh WSW 16.1 mph25.9 kmh 29.91 in1012.9 mb - 0.00 in0.0 mm 0.00 in0.0 mm
03:30 PM 60.8°F16.0°C 55.3°F12.9°C 82% 6.9 mph WSW11.1 kmh WSW 16.1 mph25.9 kmh 29.90 in1012.5 mb - 0.00 in0.0 mm 0.00 in0.0 mm
03:40 PM 60.8°F16.0°C 55.6°F13.1°C 83% 9.2 mph W14.8 kmh W 19.6 mph31.5 kmh 29.90 in1012.5 mb - 0.00 in0.0 mm 0.00 in0.0 mm
03:50 PM 60.3°F15.7°C 55.5°F13.1°C 84% 8.1 mph WNW13.0 kmh WNW 16.1 mph25.9 kmh 29.89 in1012.2 mb - 0.00 in0.0 mm 0.00 in0.0 mm
04:00 PM 59.9°F15.5°C 55.4°F13.0°C 85% 8.1 mph WSW13.0 kmh WSW 13.8 mph22.2 kmh 29.89 in1012.2 mb - 0.00 in0.0 mm 0.00 in0.0 mm
04:10 PM 59.9°F15.5°C 55.4°F13.0°C 85% 10.4 mph NW16.7 kmh NW 18.4 mph29.6 kmh 29.88 in1011.9 mb - 0.00 in0.0 mm 0.00 in0.0 mm
04:20 PM 60.1°F15.6°C 55.6°F13.1°C 85% 10.4 mph W16.7 kmh W 16.1 mph25.9 kmh 29.88 in1011.9 mb - 0.00 in0.0 mm 0.00 in0.0 mm
04:30 PM 60.3°F15.7°C 55.4°F13.0°C 84% 10.4 mph W16.7 kmh W 13.8 mph22.2 kmh 29.88 in1011.9 mb - 0.00 in0.0 mm 0.00 in0.0 mm
04:40 PM 60.2°F15.7°C 55.3°F12.9°C 84% 9.2 mph WSW14.8 kmh WSW 16.1 mph25.9 kmh 29.88 in1011.9 mb - 0.00 in0.0 mm 0.00 in0.0 mm
04:50 PM 60.3°F15.7°C 55.4°F13.0°C 84% 5.8 mph WNW9.3 kmh WNW 13.8 mph22.2 kmh 29.87 in1011.5 mb - 0.00 in0.0 mm 0.00 in0.0 mm
05:00 PM 60.0°F15.6°C 55.5°F13.1°C 85% 8.1 mph WNW13.0 kmh WNW 16.1 mph25.9 kmh 29.87 in1011.5 mb - 0.00 in0.0 mm 0.00 in0.0 mm
05:10 PM 60.0°F15.6°C 55.8°F13.2°C 86% 9.2 mph NW14.8 kmh NW 16.1 mph25.9 kmh 29.86 in1011.2 mb - 0.00 in0.0 mm 0.00 in0.0 mm
05:20 PM 59.9°F15.5°C 55.7°F13.2°C 86% 11.5 mph W18.5 kmh W 18.4 mph29.6 kmh 29.85 in1010.8 mb - 0.00 in0.0 mm 0.00 in0.0 mm
05:33 PM 59.7°F15.4°C 55.8°F13.2°C 87% 10.4 mph WSW16.7 kmh WSW 16.1 mph25.9 kmh 29.85 in1010.8 mb - 0.00 in0.0 mm 0.00 in0.0 mm
05:50 PM 59.3°F15.2°C 55.5°F13.1°C 87% 12.7 mph WNW20.4 kmh WNW 20.7 mph33.3 kmh 29.84 in1010.5 mb - 0.02 in0.5 mm 0.02 in0.5 mm
06:00 PM 59.2°F15.1°C 55.3°F12.9°C 87% 12.7 mph WSW20.4 kmh WSW 19.6 mph31.5 kmh 29.83 in1010.2 mb - 0.02 in0.5 mm 0.02 in0.5 mm
06:10 PM 59.2°F15.1°C 55.3°F12.9°C 87% 11.5 mph W18.5 kmh W 19.6 mph31.5 kmh 29.82 in1009.8 mb - 0.03 in0.8 mm 0.03 in0.8 mm
06:20 PM 59.2°F15.1°C 55.3°F12.9°C 87% 9.2 mph W14.8 kmh W 16.1 mph25.9 kmh 29.82 in1009.8 mb - 0.04 in1.0 mm 0.04 in1.0 mm
06:30 PM 59.1°F15.1°C 55.2°F12.9°C 87% 13.8 mph WSW22.2 kmh WSW 20.7 mph33.3 kmh 29.82 in1009.8 mb - 0.04 in1.0 mm 0.04 in1.0 mm
06:40 PM 59.0°F15.0°C 55.2°F12.9°C 87% 12.7 mph W20.4 kmh W 19.6 mph31.5 kmh 29.80 in1009.1 mb - 0.03 in0.8 mm 0.04 in1.0 mm
06:50 PM 59.1°F15.1°C 55.2°F12.9°C 87% 11.5 mph SW18.5 kmh SW 19.6 mph31.5 kmh 29.80 in1009.1 mb - 0.03 in0.8 mm 0.05 in1.3 mm
07:00 PM 59.0°F15.0°C 55.1°F12.8°C 87% 13.8 mph WSW22.2 kmh WSW 27.6 mph44.4 kmh 29.80 in1009.1 mb - 0.03 in0.8 mm 0.05 in1.3 mm
07:10 PM 59.0°F15.0°C 55.1°F12.8°C 87% 12.7 mph WSW20.4 kmh WSW 16.1 mph25.9 kmh 29.79 in1008.8 mb - 0.02 in0.5 mm 0.05 in1.3 mm
07:20 PM 59.0°F15.0°C 55.1°F12.8°C 87% 12.7 mph WSW20.4 kmh WSW 23.0 mph37.0 kmh 29.78 in1008.5 mb - 0.02 in0.5 mm 0.06 in1.5 mm
07:30 PM 59.1°F15.1°C 55.2°F12.9°C 87% 12.7 mph WSW20.4 kmh WSW 18.4 mph29.6 kmh 29.78 in1008.5 mb - 0.02 in0.5 mm 0.06 in1.5 mm
07:40 PM 59.2°F15.1°C 55.3°F12.9°C 87% 10.4 mph WSW16.7 kmh WSW 18.4 mph29.6 kmh 29.78 in1008.5 mb - 0.02 in0.5 mm 0.06 in1.5 mm
07:50 PM 59.3°F15.2°C 55.4°F13.0°C 87% 13.8 mph WSW22.2 kmh WSW 21.9 mph35.2 kmh 29.77 in1008.1 mb - 0.02 in0.5 mm 0.06 in1.5 mm
08:00 PM 59.3°F15.2°C 55.4°F13.0°C 87% 9.2 mph WSW14.8 kmh WSW 16.1 mph25.9 kmh 29.77 in1008.1 mb - 0.01 in0.3 mm 0.06 in1.5 mm
08:10 PM 59.4°F15.2°C 55.5°F13.1°C 87% 9.2 mph W14.8 kmh W 12.7 mph20.4 kmh 29.77 in1008.1 mb - 0.01 in0.3 mm 0.06 in1.5 mm
08:20 PM 59.5°F15.3°C 55.6°F13.1°C 87% 12.7 mph WSW20.4 kmh WSW 26.5 mph42.6 kmh 29.76 in1007.8 mb - 0.00 in0.0 mm 0.06 in1.5 mm
08:30 PM 59.6°F15.3°C 55.7°F13.2°C 87% 13.8 mph WNW22.2 kmh WNW 21.9 mph35.2 kmh 29.75 in1007.5 mb - 0.00 in0.0 mm 0.06 in1.5 mm
08:40 PM 59.7°F15.4°C 55.5°F13.1°C 86% 15.0 mph W24.1 kmh W 21.9 mph35.2 kmh 29.74 in1007.1 mb - 0.00 in0.0 mm 0.06 in1.5 mm
08:50 PM 59.9°F15.5°C 55.7°F13.2°C 86% 11.5 mph NW18.5 kmh NW 21.9 mph35.2 kmh 29.74 in1007.1 mb - 0.00 in0.0 mm 0.06 in1.5 mm
09:00 PM 60.0°F15.6°C 55.8°F13.2°C 86% 15.0 mph W24.1 kmh W 25.3 mph40.7 kmh 29.74 in1007.1 mb - 0.00 in0.0 mm 0.06 in1.5 mm
09:10 PM 60.1°F15.6°C 55.9°F13.3°C 86% 15.0 mph NE24.1 kmh NE 21.9 mph35.2 kmh 29.73 in1006.8 mb - 0.00 in0.0 mm 0.06 in1.5 mm
09:20 PM 60.2°F15.7°C 56.0°F13.3°C 86% 13.8 mph SSW22.2 kmh SSW 23.0 mph37.0 kmh 29.73 in1006.8 mb - 0.00 in0.0 mm 0.06 in1.5 mm
09:30 PM 60.2°F15.7°C 56.0°F13.3°C 86% 10.4 mph WSW16.7 kmh WSW 21.9 mph35.2 kmh 29.72 in1006.4 mb - 0.00 in0.0 mm 0.06 in1.5 mm
09:40 PM 60.3°F15.7°C 56.1°F13.4°C 86% 15.0 mph W24.1 kmh W 20.7 mph33.3 kmh 29.71 in1006.1 mb - 0.00 in0.0 mm 0.06 in1.5 mm
09:50 PM 60.3°F15.7°C 56.1°F13.4°C 86% 12.7 mph SW20.4 kmh SW 27.6 mph44.4 kmh 29.70 in1005.8 mb - 0.00 in0.0 mm 0.06 in1.5 mm
10:00 PM 60.4°F15.8°C 56.2°F13.4°C 86% 15.0 mph W24.1 kmh W 25.3 mph40.7 kmh 29.70 in1005.8 mb - 0.00 in0.0 mm 0.06 in1.5 mm
10:10 PM 60.5°F15.8°C 56.6°F13.7°C 87% 17.3 mph SW27.8 kmh SW 25.3 mph40.7 kmh 29.69 in1005.4 mb - 0.00 in0.0 mm 0.06 in1.5 mm
10:20 PM 60.5°F15.8°C 56.6°F13.7°C 87% 15.0 mph SW24.1 kmh SW 27.6 mph44.4 kmh 29.69 in1005.4 mb - 0.00 in0.0 mm 0.06 in1.5 mm
10:30 PM 60.5°F15.8°C 56.6°F13.7°C 87% 12.7 mph WSW20.4 kmh WSW 20.7 mph33.3 kmh 29.68 in1005.1 mb - 0.01 in0.3 mm 0.07 in1.8 mm
10:40 PM 60.4°F15.8°C 56.5°F13.6°C 87% 12.7 mph WSW20.4 kmh WSW 21.9 mph35.2 kmh 29.68 in1005.1 mb - 0.01 in0.3 mm 0.07 in1.8 mm
10:50 PM 60.4°F15.8°C 56.5°F13.6°C 87% 8.1 mph NW13.0 kmh NW 13.8 mph22.2 kmh 29.67 in1004.7 mb - 0.01 in0.3 mm 0.07 in1.8 mm
11:00 PM 60.4°F15.8°C 56.5°F13.6°C 87% 11.5 mph WSW18.5 kmh WSW 19.6 mph31.5 kmh 29.67 in1004.7 mb - 0.01 in0.3 mm 0.40 in10.2 mm
11:10 PM 60.4°F15.8°C 56.8°F13.8°C 88% 10.4 mph WSW16.7 kmh WSW 19.6 mph31.5 kmh 29.67 in1004.7 mb - 0.02 in0.5 mm 0.01 in0.3 mm
11:20 PM 60.4°F15.8°C 56.9°F13.8°C 88% 11.5 mph W18.5 kmh W 21.9 mph35.2 kmh 29.66 in1004.4 mb - 0.02 in0.5 mm 0.01 in0.3 mm
11:30 PM 60.5°F15.8°C 56.9°F13.8°C 88% 12.7 mph WNW20.4 kmh WNW 25.3 mph40.7 kmh 29.65 in1004.1 mb - 0.03 in0.8 mm 0.02 in0.5 mm
11:40 PM 60.5°F15.8°C 56.9°F13.8°C 88% 13.8 mph SW22.2 kmh SW 23.0 mph37.0 kmh 29.63 in1003.4 mb - 0.02 in0.5 mm 0.02 in0.5 mm
11:50 PM 60.6°F15.9°C 57.0°F13.9°C 88% 15.0 mph W24.1 kmh W 25.3 mph40.7 kmh 29.62 in1003.0 mb - 0.02 in0.5 mm 0.02 in0.5 mm